createdAt,value
2019-03-17T00:00:09.345Z,3.57
2019-03-17T00:02:40.156Z,3.17
2019-03-17T00:05:30.033Z,3.00
2019-03-17T00:07:59.538Z,2.37
2019-03-17T00:10:29.095Z,2.80
2019-03-17T00:12:59.149Z,3.07
2019-03-17T00:15:35.890Z,3.33
2019-03-17T00:18:05.507Z,2.87
2019-03-17T00:20:34.903Z,2.53
2019-03-17T00:23:04.570Z,2.80
2019-03-17T00:25:34.121Z,2.90
2019-03-17T00:28:04.013Z,3.60
2019-03-17T00:30:33.489Z,2.63
2019-03-17T00:33:03.349Z,1.90
2019-03-17T00:35:33.300Z,4.13
2019-03-17T00:38:03.119Z,3.83
2019-03-17T00:40:32.606Z,2.30
2019-03-17T00:43:02.854Z,2.67
2019-03-17T00:45:35.667Z,3.67
2019-03-17T00:48:05.133Z,2.50
2019-03-17T00:50:34.859Z,2.70
2019-03-17T00:53:04.689Z,3.10
2019-03-17T00:55:34.331Z,2.90
2019-03-17T00:58:03.858Z,2.67
2019-03-17T01:00:34.193Z,3.17
2019-03-17T01:03:03.775Z,2.93
2019-03-17T01:05:33.247Z,2.47
2019-03-17T01:08:02.743Z,2.93
2019-03-17T01:10:32.951Z,4.43
2019-03-17T01:13:04.061Z,3.97
2019-03-17T01:15:33.615Z,2.60
2019-03-17T01:18:03.327Z,1.83
2019-03-17T01:20:33.321Z,4.27
2019-03-17T01:23:02.848Z,3.77
2019-03-17T01:25:33.868Z,2.87
2019-03-17T01:28:03.416Z,3.90
2019-03-17T01:30:33.139Z,3.57
2019-03-17T01:33:02.906Z,1.33
2019-03-17T01:35:32.789Z,3.93
2019-03-17T01:38:02.838Z,3.00
2019-03-17T01:40:33.245Z,3.97
2019-03-17T01:43:03.412Z,2.53
2019-03-17T01:45:33.514Z,3.07
2019-03-17T01:48:03.299Z,3.67
2019-03-17T01:50:32.697Z,2.87
2019-03-17T01:53:02.502Z,1.13
2019-03-17T01:55:32.052Z,3.13
2019-03-17T01:58:01.541Z,2.87
2019-03-17T02:00:31.104Z,3.93
2019-03-17T02:03:01.174Z,2.87
2019-03-17T02:05:30.634Z,2.57
2019-03-17T02:08:00.430Z,2.33
2019-03-17T02:10:30.209Z,4.67
2019-03-17T02:13:00.067Z,3.07
2019-03-17T02:15:29.554Z,3.30
2019-03-17T02:17:59.071Z,4.70
2019-03-17T02:20:28.590Z,3.10
2019-03-17T02:22:58.072Z,2.93
2019-03-17T02:25:27.663Z,2.93
2019-03-17T02:27:57.240Z,2.27
2019-03-17T02:30:26.736Z,3.23
2019-03-17T02:32:56.516Z,1.67
2019-03-17T02:35:38.059Z,4.30
2019-03-17T02:37:57.305Z,2.43
2019-03-17T02:40:26.871Z,3.40
2019-03-17T02:42:56.400Z,3.17
2019-03-17T02:45:26.146Z,1.80
2019-03-17T02:47:56.032Z,2.83
2019-03-17T02:50:25.837Z,2.00
2019-03-17T02:52:55.597Z,3.10
2019-03-17T02:55:25.466Z,3.37
2019-03-17T02:57:54.901Z,2.90
2019-03-17T03:00:24.573Z,2.63
2019-03-17T03:02:54.223Z,2.80
2019-03-17T03:05:23.972Z,2.83
2019-03-17T03:07:53.394Z,1.63
2019-03-17T03:10:23.323Z,2.80
2019-03-17T03:12:52.982Z,2.73
2019-03-17T03:15:22.474Z,3.30
2019-03-17T03:17:52.038Z,2.83
2019-03-17T03:20:21.849Z,2.27
2019-03-17T03:22:51.360Z,1.27
2019-03-17T03:25:20.954Z,3.17
2019-03-17T03:27:50.460Z,2.50
2019-03-17T03:30:20.468Z,2.37
2019-03-17T03:32:50.284Z,2.90
2019-03-17T03:35:19.825Z,2.20
2019-03-17T03:37:50.477Z,1.80
2019-03-17T03:40:19.963Z,2.30
2019-03-17T03:42:49.725Z,1.23
2019-03-17T03:45:19.210Z,3.00
2019-03-17T03:47:49.087Z,1.83
2019-03-17T03:50:18.599Z,1.80
2019-03-17T03:52:48.183Z,1.67
2019-03-17T03:55:17.973Z,2.20
2019-03-17T03:57:47.544Z,2.33
2019-03-17T04:00:17.372Z,2.00
2019-03-17T04:02:47.018Z,2.10
2019-03-17T04:05:24.098Z,1.83
2019-03-17T04:07:53.874Z,2.50
2019-03-17T04:10:24.354Z,2.90
2019-03-17T04:12:54.718Z,2.80
2019-03-17T04:15:24.532Z,2.67
2019-03-17T04:17:55.040Z,1.73
2019-03-17T04:20:24.545Z,2.33
2019-03-17T04:22:54.051Z,2.10
2019-03-17T04:25:23.683Z,1.13
2019-03-17T04:27:53.176Z,1.50
2019-03-17T04:30:22.769Z,1.30
2019-03-17T04:32:52.409Z,2.17
2019-03-17T04:35:22.082Z,2.03
2019-03-17T04:37:51.821Z,1.30
2019-03-17T04:40:22.576Z,2.00
2019-03-17T04:42:52.232Z,1.17
2019-03-17T04:45:21.690Z,1.13
2019-03-17T04:47:52.094Z,1.20
2019-03-17T04:50:22.255Z,1.80
2019-03-17T04:52:51.779Z,0.97
2019-03-17T04:55:21.193Z,2.00
2019-03-17T04:57:51.154Z,0.90
2019-03-17T05:00:20.587Z,1.30
2019-03-17T05:02:52.779Z,1.67
2019-03-17T05:05:22.477Z,1.87
2019-03-17T05:07:59.429Z,0.90
2019-03-17T05:10:29.724Z,1.30
2019-03-17T05:12:59.996Z,2.10
2019-03-17T05:15:30.249Z,1.10
2019-03-17T05:17:59.869Z,0.83
2019-03-17T05:20:30.115Z,1.30
2019-03-17T05:23:00.730Z,1.30
2019-03-17T05:25:30.981Z,1.80
2019-03-17T05:28:01.299Z,1.30
2019-03-17T05:30:33.082Z,1.13
2019-03-17T05:33:06.823Z,1.27
2019-03-17T05:35:36.365Z,0.90
2019-03-17T05:38:05.803Z,1.80
2019-03-17T05:40:35.280Z,1.80
2019-03-17T05:43:04.651Z,1.73
2019-03-17T05:45:36.295Z,1.00
2019-03-17T05:48:06.093Z,1.90
2019-03-17T05:50:35.948Z,1.50
2019-03-17T05:53:05.454Z,1.57
2019-03-17T05:55:35.464Z,1.20
2019-03-17T05:58:05.260Z,0.70
2019-03-17T06:00:34.751Z,0.80
2019-03-17T06:03:04.562Z,0.83
2019-03-17T06:05:34.162Z,0.80
2019-03-17T06:08:04.072Z,0.60
2019-03-17T06:10:33.582Z,0.60
2019-03-17T06:13:03.362Z,0.30
2019-03-17T06:15:33.038Z,0.40
2019-03-17T06:18:02.920Z,0.40
2019-03-17T06:20:32.348Z,0.70
2019-03-17T06:23:01.895Z,0.73
2019-03-17T06:25:31.389Z,0.43
2019-03-17T06:28:00.940Z,0.70
2019-03-17T06:30:30.471Z,0.70
2019-03-17T06:32:59.886Z,0.80
2019-03-17T06:35:29.378Z,0.60
2019-03-17T06:37:59.058Z,0.40
2019-03-17T06:40:28.614Z,0.47
2019-03-17T06:42:58.129Z,0.90
2019-03-17T06:45:27.921Z,0.73
2019-03-17T06:47:57.339Z,0.40
2019-03-17T06:50:26.840Z,0.43
2019-03-17T06:52:56.560Z,0.40
2019-03-17T06:55:26.451Z,0.50
2019-03-17T06:57:56.125Z,0.40
2019-03-17T07:00:25.575Z,0.40
2019-03-17T07:03:14.381Z,0.40
2019-03-17T07:05:43.965Z,0.40
2019-03-17T07:08:21.440Z,0.33
2019-03-17T07:10:51.537Z,0.60
2019-03-17T07:13:30.408Z,0.10
2019-03-17T07:16:14.685Z,0.50
2019-03-17T07:18:44.408Z,0.40
2019-03-17T07:21:17.193Z,0.70
2019-03-17T07:23:46.874Z,0.10
2019-03-17T07:26:16.363Z,0.30
2019-03-17T07:28:45.908Z,0.20
2019-03-17T07:31:15.449Z,0.60
2019-03-17T07:33:45.382Z,0.60
2019-03-17T07:36:15.449Z,0.67
2019-03-17T07:38:45.026Z,0.57
2019-03-17T07:41:14.918Z,0.50
2019-03-17T07:43:45.260Z,0.93
2019-03-17T07:46:15.250Z,0.30
2019-03-17T07:48:44.739Z,0.60
2019-03-17T07:51:14.606Z,0.37
2019-03-17T07:53:45.257Z,0.50
2019-03-17T07:56:14.964Z,1.03
2019-03-17T07:58:45.169Z,0.60
2019-03-17T08:01:15.198Z,0.30
2019-03-17T08:03:45.176Z,0.50
2019-03-17T08:06:15.293Z,0.30
2019-03-17T08:08:52.091Z,0.53
2019-03-17T08:11:21.831Z,0.63
2019-03-17T08:13:52.567Z,0.70
2019-03-17T08:16:22.912Z,0.40
2019-03-17T08:18:52.982Z,0.63
2019-03-17T08:21:23.030Z,0.60
2019-03-17T08:23:52.677Z,0.17
2019-03-17T08:26:24.326Z,1.20
2019-03-17T08:28:54.044Z,0.50
2019-03-17T08:31:25.256Z,0.80
2019-03-17T08:34:06.155Z,0.87
2019-03-17T08:36:36.098Z,0.33
2019-03-17T08:39:10.856Z,0.73
2019-03-17T08:41:41.059Z,0.50
2019-03-17T08:44:10.702Z,1.13
2019-03-17T08:46:40.890Z,0.57
2019-03-17T08:49:18.451Z,0.93
2019-03-17T08:51:48.162Z,0.83
2019-03-17T08:54:24.071Z,0.77
2019-03-17T08:56:53.738Z,0.50
2019-03-17T08:59:23.484Z,0.47
2019-03-17T09:01:53.762Z,0.97
2019-03-17T09:05:42.814Z,0.80
2019-03-17T09:08:13.671Z,0.60
2019-03-17T09:10:43.751Z,0.87
2019-03-17T09:13:17.851Z,0.87
2019-03-17T09:15:47.497Z,1.73
2019-03-17T09:18:19.164Z,0.63
2019-03-17T09:20:48.800Z,0.60
2019-03-17T09:23:21.958Z,0.77
2019-03-17T09:25:53.360Z,0.90
2019-03-17T09:28:25.570Z,0.23
2019-03-17T09:30:55.920Z,0.50
2019-03-17T09:33:26.030Z,0.70
2019-03-17T09:35:56.062Z,1.23
2019-03-17T09:38:46.444Z,0.60
2019-03-17T09:41:05.888Z,1.27
2019-03-17T09:43:39.601Z,1.03
2019-03-17T09:46:10.796Z,0.93
2019-03-17T09:48:40.373Z,0.87
2019-03-17T09:51:20.405Z,1.07
2019-03-17T09:53:50.750Z,1.03
2019-03-17T09:56:20.690Z,2.03
2019-03-17T09:58:54.438Z,0.93
2019-03-17T10:01:37.156Z,1.73
2019-03-17T10:04:06.891Z,1.00
2019-03-17T10:06:37.523Z,0.80
2019-03-17T10:09:08.717Z,0.90
2019-03-17T10:11:39.833Z,1.30
2019-03-17T10:14:10.248Z,0.63
2019-03-17T10:16:46.601Z,0.60
2019-03-17T10:19:22.774Z,0.80
2019-03-17T10:21:56.671Z,1.50
2019-03-17T10:24:29.740Z,1.17
2019-03-17T10:27:01.950Z,0.90
2019-03-17T10:29:34.527Z,0.40
2019-03-17T10:32:13.394Z,1.07
2019-03-17T10:34:45.665Z,1.00
2019-03-17T10:37:16.257Z,1.00
2019-03-17T10:39:48.890Z,0.67
2019-03-17T10:42:20.089Z,0.90
2019-03-17T10:44:55.469Z,0.60
2019-03-17T10:47:25.529Z,0.97
2019-03-17T10:49:55.707Z,1.00
2019-03-17T10:52:25.594Z,1.40
2019-03-17T10:54:58.193Z,0.90
2019-03-17T10:57:29.119Z,0.90
2019-03-17T11:00:01.019Z,0.80
2019-03-17T11:02:36.268Z,1.10
2019-03-17T11:05:06.785Z,1.00
2019-03-17T11:07:37.646Z,0.77
2019-03-17T11:10:07.832Z,0.83
2019-03-17T11:12:37.577Z,1.03
2019-03-17T11:15:08.726Z,1.03
2019-03-17T11:17:42.286Z,1.10
2019-03-17T11:20:12.347Z,1.27
2019-03-17T11:22:42.831Z,0.50
2019-03-17T11:25:13.061Z,1.23
2019-03-17T11:27:43.443Z,0.50
2019-03-17T11:30:15.430Z,1.70
2019-03-17T11:32:47.925Z,0.87
2019-03-17T11:35:18.920Z,0.40
2019-03-17T11:37:48.614Z,0.67
2019-03-17T11:40:18.096Z,0.53
2019-03-17T11:42:49.702Z,0.20
2019-03-17T11:45:19.122Z,0.53
2019-03-17T11:47:49.867Z,0.73
2019-03-17T11:50:22.367Z,0.20
2019-03-17T11:52:53.640Z,0.40
2019-03-17T11:55:24.725Z,0.80
2019-03-17T11:57:54.421Z,0.60
2019-03-17T12:00:24.118Z,0.40
2019-03-17T12:02:54.061Z,0.60
2019-03-17T12:05:24.696Z,0.70
2019-03-17T12:07:54.482Z,0.50
2019-03-17T12:10:23.969Z,0.40
2019-03-17T12:12:56.358Z,0.30
2019-03-17T12:15:26.240Z,0.40
2019-03-17T12:17:56.135Z,0.40
2019-03-17T12:20:25.635Z,0.50
2019-03-17T12:22:55.710Z,0.40
2019-03-17T12:25:36.658Z,0.83
2019-03-17T12:28:06.990Z,0.40
2019-03-17T12:30:37.098Z,0.40
2019-03-17T12:33:07.469Z,0.50
2019-03-17T12:35:40.071Z,0.37
2019-03-17T12:38:11.446Z,0.90
2019-03-17T12:40:42.439Z,0.43
2019-03-17T12:43:12.654Z,0.80
2019-03-17T12:45:44.717Z,0.30
2019-03-17T12:48:17.435Z,0.90
2019-03-17T12:50:47.668Z,0.80
2019-03-17T12:53:22.557Z,0.50
2019-03-17T12:56:00.391Z,0.63
2019-03-17T12:58:30.470Z,0.80
2019-03-17T13:01:00.559Z,0.67
2019-03-17T13:03:31.043Z,0.33
2019-03-17T13:06:01.540Z,0.33
2019-03-17T13:08:33.824Z,0.50
2019-03-17T13:11:05.743Z,0.60
2019-03-17T13:13:35.738Z,0.63
2019-03-17T13:16:06.695Z,0.50
2019-03-17T13:18:36.594Z,0.40
2019-03-17T13:21:08.890Z,0.60
2019-03-17T13:23:39.094Z,0.30
2019-03-17T13:26:10.448Z,0.60
2019-03-17T13:28:41.031Z,0.60
2019-03-17T13:31:13.143Z,0.30
2019-03-17T13:33:43.452Z,0.90
2019-03-17T13:36:16.250Z,0.50
2019-03-17T13:38:46.196Z,0.63
2019-03-17T13:41:17.310Z,0.53
2019-03-17T13:43:50.849Z,0.40
2019-03-17T13:46:25.722Z,0.87
2019-03-17T13:48:56.197Z,0.80
2019-03-17T13:51:26.255Z,0.83
2019-03-17T13:53:55.857Z,0.40
2019-03-17T13:56:25.723Z,0.40
2019-03-17T13:58:57.316Z,0.90
2019-03-17T14:01:28.447Z,0.80
2019-03-17T14:04:01.870Z,0.53
2019-03-17T14:06:43.164Z,0.63
2019-03-17T14:09:15.074Z,0.60
2019-03-17T14:11:46.263Z,0.90
2019-03-17T14:14:18.363Z,1.10
2019-03-17T14:16:48.350Z,1.00
2019-03-17T14:19:18.426Z,0.83
2019-03-17T14:21:54.671Z,0.93
2019-03-17T14:24:25.010Z,0.80
2019-03-17T14:26:55.063Z,0.90
2019-03-17T14:29:26.425Z,1.03
2019-03-17T14:31:57.109Z,0.73
2019-03-17T14:34:27.160Z,0.33
2019-03-17T14:36:57.190Z,0.40
2019-03-17T14:39:39.944Z,1.17
2019-03-17T14:42:10.470Z,1.23
2019-03-17T14:44:41.248Z,1.00
2019-03-17T14:47:11.615Z,0.80
2019-03-17T14:49:42.598Z,0.60
2019-03-17T14:52:13.709Z,1.03
2019-03-17T14:54:44.075Z,0.87
2019-03-17T14:57:15.875Z,1.20
2019-03-17T14:59:45.397Z,0.90
2019-03-17T15:02:15.354Z,0.83
2019-03-17T15:04:47.349Z,0.50
2019-03-17T15:07:17.458Z,0.70
2019-03-17T15:10:35.859Z,0.70
2019-03-17T15:13:12.929Z,0.73
2019-03-17T15:15:46.196Z,1.27
2019-03-17T15:18:16.801Z,0.67
2019-03-17T15:20:47.326Z,0.53
2019-03-17T15:23:17.522Z,0.67
2019-03-17T15:25:47.751Z,0.70
2019-03-17T15:28:17.851Z,0.60
2019-03-17T15:31:05.613Z,1.20
2019-03-17T15:33:23.332Z,0.60
2019-03-17T15:36:02.207Z,1.30
2019-03-17T15:41:18.947Z,0.50
2019-03-17T15:43:46.673Z,0.83
2019-03-17T15:46:17.469Z,0.70
2019-03-17T15:48:47.325Z,0.50
2019-03-17T15:51:20.690Z,0.47
2019-03-17T15:53:51.650Z,0.77
2019-03-17T15:56:37.600Z,0.63
2019-03-17T15:59:14.569Z,0.53
2019-03-17T16:01:51.134Z,0.80
2019-03-17T16:04:26.336Z,0.90
2019-03-17T16:06:56.074Z,0.70
2019-03-17T16:09:28.491Z,1.23
2019-03-17T16:11:57.356Z,0.67
2019-03-17T16:14:27.046Z,0.87
2019-03-17T16:17:03.894Z,0.80
2019-03-17T16:19:36.563Z,0.67
2019-03-17T16:22:15.380Z,0.70
2019-03-17T16:24:49.064Z,1.80
2019-03-17T16:27:19.799Z,0.53
2019-03-17T16:29:50.035Z,0.67
2019-03-17T16:32:20.569Z,0.80
2019-03-17T16:34:55.015Z,0.43
2019-03-17T16:37:24.650Z,1.00
2019-03-17T16:39:55.332Z,0.80
2019-03-17T16:42:25.350Z,0.50
2019-03-17T16:44:55.018Z,1.20
2019-03-17T16:47:25.407Z,1.10
2019-03-17T16:49:55.506Z,0.97
2019-03-17T16:52:32.436Z,0.77
2019-03-17T16:55:05.722Z,0.60
2019-03-17T16:57:35.867Z,0.77
2019-03-17T17:00:13.778Z,1.20
2019-03-17T17:02:45.449Z,1.10
2019-03-17T17:05:15.233Z,0.20
2019-03-17T17:07:45.031Z,0.27
2019-03-17T17:10:16.130Z,0.43
2019-03-17T17:12:45.789Z,0.73
2019-03-17T17:15:22.085Z,0.20
2019-03-17T17:17:51.979Z,0.90
2019-03-17T17:20:24.163Z,0.90
2019-03-17T17:22:54.028Z,0.70
2019-03-17T17:25:26.857Z,0.50
2019-03-17T17:27:56.691Z,0.83
2019-03-17T17:30:26.499Z,0.40
2019-03-17T17:32:56.078Z,0.73
2019-03-17T17:35:27.862Z,0.63
2019-03-17T17:37:57.621Z,0.67
2019-03-17T17:40:28.868Z,0.67
2019-03-17T17:43:02.414Z,1.33
2019-03-17T17:45:35.646Z,1.03
2019-03-17T17:48:05.332Z,0.60
2019-03-17T17:50:35.208Z,0.37
2019-03-17T17:53:05.320Z,0.47
2019-03-17T17:55:36.047Z,0.40
2019-03-17T17:58:05.610Z,0.90
2019-03-17T18:00:37.277Z,0.70
2019-03-17T18:03:06.773Z,0.17
2019-03-17T18:05:36.712Z,1.13
2019-03-17T18:08:06.869Z,0.90
2019-03-17T18:10:36.780Z,0.50
2019-03-17T18:13:07.172Z,1.07
2019-03-17T18:15:41.118Z,0.97
2019-03-17T18:18:19.770Z,0.97
2019-03-17T18:20:51.017Z,0.53
2019-03-17T18:23:21.147Z,1.50
2019-03-17T18:25:53.692Z,0.90
2019-03-17T18:28:23.697Z,0.73
2019-03-17T18:30:54.961Z,0.70
2019-03-17T18:33:25.287Z,0.60
2019-03-17T18:35:57.081Z,1.17
2019-03-17T18:38:26.808Z,0.80
2019-03-17T18:40:58.980Z,0.33
2019-03-17T18:43:28.420Z,0.83
2019-03-17T18:45:57.982Z,1.50
2019-03-17T18:48:27.399Z,0.30
2019-03-17T18:50:57.296Z,1.60
2019-03-17T18:53:28.205Z,1.40
2019-03-17T18:55:57.734Z,0.90
2019-03-17T18:58:27.548Z,0.90
2019-03-17T19:00:59.556Z,0.40
2019-03-17T19:03:31.740Z,0.20
2019-03-17T19:06:05.280Z,0.77
2019-03-17T19:08:41.467Z,1.33
2019-03-17T19:11:11.620Z,0.80
2019-03-17T19:13:42.456Z,1.00
2019-03-17T19:16:12.536Z,0.57
2019-03-17T19:18:42.726Z,0.20
2019-03-17T19:21:12.507Z,0.40
2019-03-17T19:23:44.687Z,1.10
2019-03-17T19:26:14.147Z,0.70
2019-03-17T19:28:43.700Z,0.80
2019-03-17T19:31:13.179Z,0.70
2019-03-17T19:33:43.204Z,0.43
2019-03-17T19:36:13.035Z,0.80
2019-03-17T19:38:42.730Z,0.53
2019-03-17T19:41:12.276Z,0.63
2019-03-17T19:43:41.862Z,0.97
2019-03-17T19:46:11.998Z,1.27
2019-03-17T19:48:41.520Z,1.20
2019-03-17T19:51:20.107Z,1.40
2019-03-17T19:53:49.977Z,0.70
2019-03-17T19:56:19.970Z,0.70
2019-03-17T19:58:50.026Z,1.27
2019-03-17T20:01:20.026Z,0.40
2019-03-17T20:03:49.731Z,1.03
2019-03-17T20:06:19.477Z,0.70
2019-03-17T20:08:49.140Z,0.90
2019-03-17T20:11:20.906Z,0.60
2019-03-17T20:13:50.634Z,0.33
2019-03-17T20:16:21.003Z,1.17
2019-03-17T20:18:50.890Z,0.77
2019-03-17T20:21:22.944Z,1.73
2019-03-17T20:23:53.596Z,0.90
2019-03-17T20:26:23.848Z,0.50
2019-03-17T20:28:53.580Z,1.30
2019-03-17T20:31:23.721Z,1.40
2019-03-17T20:33:53.806Z,0.43
2019-03-17T20:36:24.285Z,0.80
2019-03-17T20:38:54.780Z,0.40
2019-03-17T20:41:25.849Z,1.23
2019-03-17T20:44:17.029Z,1.00
2019-03-17T20:46:46.684Z,1.20
2019-03-17T20:49:17.779Z,0.80
2019-03-17T20:52:01.193Z,1.90
2019-03-17T20:54:31.464Z,0.80
2019-03-17T20:57:01.758Z,1.23
2019-03-17T20:59:32.097Z,0.90
2019-03-17T21:02:02.115Z,0.47
2019-03-17T21:04:40.128Z,0.53
2019-03-17T21:07:14.493Z,1.47
2019-03-17T21:09:45.893Z,0.57
2019-03-17T21:12:15.802Z,0.43
2019-03-17T21:14:47.676Z,0.77
2019-03-17T21:17:17.513Z,0.33
2019-03-17T21:19:49.178Z,0.70
2019-03-17T21:22:21.174Z,0.20
2019-03-17T21:24:52.928Z,0.60
2019-03-17T21:27:22.732Z,1.07
2019-03-17T21:29:53.141Z,0.87
2019-03-17T21:32:22.822Z,0.53
2019-03-17T21:34:53.047Z,0.30
2019-03-17T21:37:26.622Z,0.93
2019-03-17T21:39:57.983Z,0.97
2019-03-17T21:42:32.511Z,0.87
2019-03-17T21:45:01.507Z,0.93
2019-03-17T21:47:31.317Z,1.20
2019-03-17T21:50:01.745Z,0.83
2019-03-17T21:52:34.745Z,0.70
2019-03-17T21:55:04.810Z,0.27
2019-03-17T21:57:34.391Z,0.50
2019-03-17T22:00:04.602Z,0.57
2019-03-17T22:02:34.208Z,0.90
2019-03-17T22:05:04.181Z,0.67
2019-03-17T22:07:33.623Z,0.73
2019-03-17T22:10:03.114Z,1.30
2019-03-17T22:12:32.627Z,0.83
2019-03-17T22:15:02.100Z,0.50
2019-03-17T22:17:31.744Z,1.20
2019-03-17T22:20:03.557Z,1.37
2019-03-17T22:22:33.191Z,0.70
2019-03-17T22:25:02.700Z,1.87
2019-03-17T22:27:32.283Z,0.77
2019-03-17T22:30:01.766Z,1.20
2019-03-17T22:32:31.301Z,0.83
2019-03-17T22:35:01.180Z,1.30
2019-03-17T22:37:30.975Z,0.80
2019-03-17T22:40:07.833Z,1.90
2019-03-17T22:42:39.882Z,0.53
2019-03-17T22:45:10.186Z,0.90
2019-03-17T22:47:44.292Z,0.77
2019-03-17T22:50:13.918Z,1.73
2019-03-17T22:52:51.718Z,0.70
2019-03-17T22:55:30.760Z,1.00
2019-03-17T22:58:00.509Z,0.73
2019-03-17T23:00:40.525Z,0.50
2019-03-17T23:03:13.598Z,0.93
2019-03-17T23:05:43.447Z,0.53
2019-03-17T23:08:13.075Z,0.60
2019-03-17T23:10:46.046Z,0.63
2019-03-17T23:13:15.856Z,0.77
2019-03-17T23:15:45.796Z,0.57
2019-03-17T23:18:41.053Z,1.53
2019-03-17T23:21:11.157Z,1.03
2019-03-17T23:23:42.225Z,0.87
2019-03-17T23:26:11.990Z,1.03
2019-03-17T23:28:41.924Z,0.30
2019-03-17T23:31:11.517Z,1.43
2019-03-17T23:33:41.182Z,1.03
2019-03-17T23:36:14.383Z,0.90
2019-03-17T23:38:45.401Z,0.77
2019-03-17T23:41:14.808Z,0.60
2019-03-17T23:43:44.687Z,0.97
2019-03-17T23:46:14.195Z,1.40
2019-03-17T23:48:52.776Z,1.67
2019-03-17T23:51:22.404Z,1.30
2019-03-17T23:53:52.161Z,1.03
2019-03-17T23:56:21.649Z,0.50
2019-03-17T23:58:51.672Z,0.40
